Terminal Aerodrome Forecast
Issued by NWS Sioux Falls, SD

Home | Current Version | Previous Version | Text Only | Print | Product List | Glossary On
Versions: 1 2 3 4 5 6 7 8 9 10 11 12 13 14 15
000
FTUS43 KFSD 271328 AAA
TAFHON
TAF AMD
KHON 271328Z 2713/2812 13010KT P6SM BKN009
     FM271600 11010KT P6SM SCT015 SCT150
     FM271800 15017G24KT P6SM SCT030
     FM280300 14016G23KT P6SM SCT040 BKN250
     FM280500 17015G22KT P6SM BKN070
      TEMPO 2805/2807 4SM TSRA OVC035CB
     FM280900 30015G22KT P6SM BKN150=

USA.gov is the U.S. government's official web portal to all federal, state and local government web resources and services.